createdAt,value
2023-04-28T00:03:50.039Z,9.80
2023-04-28T00:09:16.468Z,10.90
2023-04-28T00:14:41.309Z,11.00
2023-04-28T00:20:06.655Z,11.00
2023-04-28T00:25:30.570Z,10.20
2023-04-28T00:30:54.446Z,10.50
2023-04-28T00:36:18.450Z,10.40
2023-04-28T00:41:43.264Z,9.60
2023-04-28T00:47:12.119Z,9.60
2023-04-28T00:52:37.270Z,10.10
2023-04-28T00:58:02.760Z,9.50
2023-04-28T01:03:27.398Z,10.70
2023-04-28T01:08:51.479Z,9.50
2023-04-28T01:14:17.843Z,10.20
2023-04-28T01:19:43.796Z,10.60
2023-04-28T01:25:08.618Z,9.80
2023-04-28T01:30:33.308Z,9.90
2023-04-28T01:36:01.313Z,10.10
2023-04-28T01:41:25.474Z,10.80
2023-04-28T01:46:50.604Z,11.40
2023-04-28T01:52:15.780Z,11.90
2023-04-28T01:57:40.147Z,11.50
2023-04-28T02:03:04.794Z,12.20
2023-04-28T02:08:32.535Z,11.90
2023-04-28T02:13:56.822Z,12.90
2023-04-28T02:19:21.971Z,11.70
2023-04-28T02:24:46.365Z,12.20
2023-04-28T02:30:11.262Z,12.20
2023-04-28T02:35:35.412Z,10.80
2023-04-28T02:41:05.404Z,12.50
2023-04-28T02:46:29.511Z,12.90
2023-04-28T02:51:56.569Z,10.90
2023-04-28T02:57:21.626Z,11.30
2023-04-28T03:02:45.908Z,12.60
2023-04-28T03:08:10.465Z,12.20
2023-04-28T03:13:36.273Z,12.40
2023-04-28T03:19:00.637Z,12.20
2023-04-28T03:24:25.714Z,14.00
2023-04-28T03:29:52.367Z,13.40
2023-04-28T03:35:18.796Z,11.80
2023-04-28T03:40:43.441Z,13.60
2023-04-28T03:46:43.699Z,13.90
2023-04-28T03:52:08.324Z,14.60
2023-04-28T03:57:34.328Z,14.50
2023-04-28T04:02:59.282Z,15.10
2023-04-28T04:08:23.713Z,15.30
2023-04-28T04:13:48.263Z,15.80
2023-04-28T04:19:13.377Z,15.70
2023-04-28T04:24:39.066Z,16.10
2023-04-28T04:30:04.535Z,16.70
2023-04-28T04:35:29.817Z,15.60
2023-04-28T04:40:54.431Z,15.10
2023-04-28T04:46:19.536Z,13.90
2023-04-28T04:51:44.326Z,15.10
2023-04-28T04:57:10.034Z,13.50
2023-04-28T05:02:58.019Z,13.80
2023-04-28T05:08:31.004Z,14.20
2023-04-28T05:14:10.054Z,14.10
2023-04-28T05:19:36.765Z,14.10
2023-04-28T05:25:01.908Z,16.10
2023-04-28T05:30:26.886Z,16.90
2023-04-28T05:35:52.330Z,16.40
2023-04-28T05:41:17.371Z,16.70
2023-04-28T05:46:41.853Z,15.40
2023-04-28T05:52:06.307Z,16.90
2023-04-28T05:57:32.039Z,15.60
2023-04-28T06:03:01.562Z,14.90
2023-04-28T06:08:27.081Z,13.90
2023-04-28T06:13:51.968Z,12.20
2023-04-28T06:19:19.208Z,12.80
2023-04-28T06:24:44.380Z,13.10
2023-04-28T06:30:19.248Z,15.30
2023-04-28T06:35:44.431Z,13.40
2023-04-28T06:41:09.383Z,11.80
2023-04-28T06:46:34.309Z,13.20
2023-04-28T06:51:58.256Z,13.60
2023-04-28T06:57:22.971Z,14.50
2023-04-28T07:02:47.299Z,13.80
2023-04-28T07:08:11.285Z,13.60
2023-04-28T07:13:36.274Z,13.90
2023-04-28T07:19:00.996Z,13.90
2023-04-28T07:24:25.889Z,16.00
2023-04-28T07:29:50.317Z,15.10
2023-04-28T07:36:28.961Z,14.90
2023-04-28T07:42:31.709Z,13.60
2023-04-28T07:47:56.824Z,11.70
2023-04-28T07:53:21.953Z,12.20
2023-04-28T07:58:46.278Z,12.00
2023-04-28T08:04:11.612Z,11.70
2023-04-28T08:09:36.457Z,11.90
2023-04-28T08:15:00.381Z,12.10
2023-04-28T08:20:25.575Z,11.20
2023-04-28T08:25:50.820Z,10.80
2023-04-28T08:31:15.245Z,10.30
2023-04-28T08:36:39.677Z,9.90
2023-04-28T08:42:07.978Z,10.50
2023-04-28T08:47:36.627Z,9.50
2023-04-28T08:53:05.130Z,9.40
2023-04-28T08:58:29.977Z,7.50
2023-04-28T09:03:55.447Z,7.90
2023-04-28T09:09:47.932Z,6.60
2023-04-28T09:15:37.834Z,6.30
2023-04-28T09:21:13.404Z,6.70
2023-04-28T09:26:55.476Z,7.00
2023-04-28T09:32:22.562Z,6.70
2023-04-28T09:37:47.673Z,6.10
2023-04-28T09:43:34.122Z,6.60
2023-04-28T09:49:02.833Z,5.20
2023-04-28T09:54:30.506Z,4.60
2023-04-28T09:59:54.986Z,5.70
2023-04-28T10:05:22.225Z,5.00
2023-04-28T10:10:54.984Z,5.00
2023-04-28T10:16:20.594Z,5.40
2023-04-28T10:21:53.109Z,4.20
2023-04-28T10:27:18.537Z,4.70
2023-04-28T10:32:44.267Z,5.10
2023-04-28T10:38:20.795Z,4.50
2023-04-28T10:43:51.865Z,5.00
2023-04-28T10:49:17.462Z,4.50
2023-04-28T10:55:19.335Z,4.60
2023-04-28T11:00:57.212Z,4.10
2023-04-28T11:06:38.858Z,4.30
2023-04-28T11:12:11.533Z,4.20
2023-04-28T11:17:42.827Z,4.60
2023-04-28T11:23:12.232Z,4.00
2023-04-28T11:28:52.798Z,4.10
2023-04-28T11:34:25.216Z,4.20
2023-04-28T11:39:52.199Z,3.30
2023-04-28T11:45:17.216Z,3.00
2023-04-28T11:50:41.763Z,3.00
2023-04-28T11:56:09.986Z,3.10
2023-04-28T12:01:37.743Z,2.70
2023-04-28T12:07:12.974Z,2.40
2023-04-28T12:12:49.983Z,2.90
2023-04-28T12:18:19.883Z,2.50
2023-04-28T12:23:44.278Z,2.50
2023-04-28T12:29:08.201Z,2.10
2023-04-28T12:34:33.606Z,2.20
2023-04-28T12:39:58.255Z,2.20
2023-04-28T12:45:24.679Z,2.40
2023-04-28T12:50:49.582Z,1.90
2023-04-28T12:56:13.870Z,2.30
2023-04-28T13:01:38.522Z,2.20
2023-04-28T13:07:03.951Z,2.40
2023-04-28T13:12:28.324Z,2.10
2023-04-28T13:17:53.491Z,1.70
2023-04-28T13:23:18.189Z,2.10
2023-04-28T13:28:42.640Z,2.10
2023-04-28T13:34:06.570Z,2.00
2023-04-28T13:39:31.384Z,1.90
2023-04-28T13:44:55.483Z,2.10
2023-04-28T13:50:21.225Z,2.00
2023-04-28T13:55:46.736Z,1.90
2023-04-28T14:01:12.438Z,1.90
2023-04-28T14:06:37.602Z,1.90
2023-04-28T14:12:02.529Z,2.00
2023-04-28T14:17:28.795Z,2.40
2023-04-28T14:22:53.880Z,2.00
2023-04-28T14:28:18.352Z,1.90
2023-04-28T14:33:43.076Z,2.30
2023-04-28T14:39:06.892Z,1.80
2023-04-28T14:44:31.263Z,2.40
2023-04-28T14:49:55.519Z,1.90
2023-04-28T14:55:21.631Z,2.10
2023-04-28T15:00:46.331Z,2.50
2023-04-28T15:06:11.939Z,2.50
2023-04-28T15:11:36.389Z,3.10
2023-04-28T15:17:00.545Z,2.30
2023-04-28T15:22:25.291Z,2.70
2023-04-28T15:27:50.950Z,2.50
2023-04-28T15:33:18.097Z,2.50
2023-04-28T15:38:42.997Z,2.30
2023-04-28T15:44:07.719Z,1.90
2023-04-28T15:49:32.299Z,2.60
2023-04-28T15:54:56.822Z,3.00
2023-04-28T16:00:22.449Z,2.50
2023-04-28T16:05:47.605Z,2.40
2023-04-28T16:11:19.704Z,2.20
2023-04-28T16:16:44.900Z,2.60
2023-04-28T16:22:09.656Z,2.90
2023-04-28T16:27:35.648Z,3.30
2023-04-28T16:33:00.468Z,4.30
2023-04-28T16:38:25.479Z,3.70
2023-04-28T16:43:52.056Z,4.60
2023-04-28T16:49:18.618Z,3.80
2023-04-28T16:54:49.476Z,3.60
2023-04-28T17:00:22.481Z,3.60
2023-04-28T17:05:53.448Z,2.80
2023-04-28T17:11:22.345Z,2.90
2023-04-28T17:16:51.439Z,3.20
2023-04-28T17:22:21.620Z,2.60
2023-04-28T17:27:48.658Z,3.90
2023-04-28T17:33:14.809Z,4.30
2023-04-28T17:38:50.641Z,5.90
2023-04-28T17:44:22.043Z,5.40
2023-04-28T17:49:48.770Z,5.70
2023-04-28T17:55:24.398Z,4.70
2023-04-28T18:00:57.820Z,3.40
2023-04-28T18:06:29.608Z,4.70
2023-04-28T18:12:00.552Z,3.30
2023-04-28T18:17:29.500Z,3.30
2023-04-28T18:22:53.744Z,3.00
2023-04-28T18:28:18.331Z,3.70
2023-04-28T18:33:42.292Z,3.50
2023-04-28T18:39:07.044Z,4.00
2023-04-28T18:44:34.761Z,4.40
2023-04-28T18:50:00.409Z,4.60
2023-04-28T18:55:25.091Z,5.10
2023-04-28T19:00:49.500Z,5.30
2023-04-28T19:06:14.904Z,4.70
2023-04-28T19:11:38.903Z,5.20
2023-04-28T19:17:03.930Z,5.80
2023-04-28T19:22:40.772Z,4.40
2023-04-28T19:28:05.221Z,5.60
2023-04-28T19:33:30.043Z,6.00
2023-04-28T19:38:54.332Z,4.60
2023-04-28T19:44:20.615Z,4.90
2023-04-28T19:49:46.771Z,4.90
2023-04-28T19:55:13.718Z,5.00
2023-04-28T20:00:38.828Z,5.10
2023-04-28T20:06:02.953Z,4.30
2023-04-28T20:11:28.925Z,4.70
2023-04-28T20:16:54.558Z,4.60
2023-04-28T20:23:07.324Z,5.30
2023-04-28T20:29:00.130Z,5.50
2023-04-28T20:34:25.155Z,5.10
2023-04-28T20:39:51.217Z,5.10
2023-04-28T20:45:17.608Z,6.00
2023-04-28T20:50:43.596Z,5.90
2023-04-28T20:56:10.028Z,5.70
2023-04-28T21:01:35.881Z,6.70
2023-04-28T21:07:00.630Z,5.20
2023-04-28T21:12:24.642Z,5.60
2023-04-28T21:17:49.818Z,5.10
2023-04-28T21:23:14.366Z,5.10
2023-04-28T21:28:40.503Z,5.00
2023-04-28T21:34:05.332Z,5.30
2023-04-28T21:39:29.831Z,4.80
2023-04-28T21:44:54.292Z,5.90
2023-04-28T21:50:18.720Z,5.10
2023-04-28T21:55:45.153Z,6.10
2023-04-28T22:01:10.467Z,5.40
2023-04-28T22:06:36.246Z,6.20
2023-04-28T22:12:00.253Z,6.10
2023-04-28T22:17:24.178Z,6.40
2023-04-28T22:22:48.550Z,6.50
2023-04-28T22:28:12.676Z,6.90
2023-04-28T22:33:39.146Z,6.80
2023-04-28T22:39:05.311Z,7.00
2023-04-28T22:44:30.433Z,7.30
2023-04-28T22:49:55.952Z,7.90
2023-04-28T22:55:20.881Z,10.50
2023-04-28T23:00:45.353Z,9.40
2023-04-28T23:06:10.887Z,8.50
2023-04-28T23:11:36.044Z,7.00
2023-04-28T23:17:00.276Z,6.30
2023-04-28T23:22:24.836Z,5.90
2023-04-28T23:27:49.524Z,6.20
2023-04-28T23:33:13.559Z,6.70
2023-04-28T23:38:38.435Z,7.80
2023-04-28T23:44:03.239Z,9.50
2023-04-28T23:49:27.163Z,10.90
2023-04-28T23:54:51.717Z,8.80
